createdAt,value
2019-05-29T00:02:15.797Z,97030.40
2019-05-29T00:04:32.466Z,97037.44
2019-05-29T00:06:49.453Z,97037.34
2019-05-29T00:09:08.065Z,97037.34
2019-05-29T00:11:25.058Z,97050.48
2019-05-29T00:13:43.480Z,97047.78
2019-05-29T00:16:00.355Z,97053.78
2019-05-29T00:18:18.596Z,97048.03
2019-05-29T00:20:35.999Z,97051.13
2019-05-29T00:22:53.079Z,97053.36
2019-05-29T00:25:10.635Z,97055.73
2019-05-29T00:27:27.441Z,97058.36
2019-05-29T00:29:44.328Z,97058.36
2019-05-29T00:32:01.808Z,97061.36
2019-05-29T00:34:18.476Z,97071.44
2019-05-29T00:36:36.259Z,97071.44
2019-05-29T00:38:53.465Z,97075.32
2019-05-29T00:41:10.836Z,97078.45
2019-05-29T00:43:28.042Z,97079.20
2019-05-29T00:45:45.057Z,97077.84
2019-05-29T00:48:01.689Z,97075.23
2019-05-29T00:50:18.370Z,97077.61
2019-05-29T00:52:35.252Z,97077.61
2019-05-29T00:54:52.226Z,97078.61
2019-05-29T00:57:09.250Z,97085.02
2019-05-29T00:59:26.275Z,97085.19
2019-05-29T01:01:43.074Z,97091.67
2019-05-29T01:03:59.803Z,97086.75
2019-05-29T01:06:16.393Z,97082.58
2019-05-29T01:08:33.248Z,97082.58
2019-05-29T01:10:50.245Z,97090.52
2019-05-29T01:13:07.414Z,97095.39
2019-05-29T01:15:24.574Z,97087.77
2019-05-29T01:17:41.438Z,97089.52
2019-05-29T01:19:58.291Z,97100.85
2019-05-29T01:22:16.138Z,97105.89
2019-05-29T01:24:33.353Z,97108.77
2019-05-29T01:26:50.463Z,97115.31
2019-05-29T01:29:07.431Z,97120.05
2019-05-29T01:31:24.349Z,97109.03
2019-05-29T01:33:41.440Z,97123.77
2019-05-29T01:35:58.604Z,97118.54
2019-05-29T01:38:15.322Z,97116.17
2019-05-29T01:40:32.251Z,97133.28
2019-05-29T01:42:50.187Z,97132.27
2019-05-29T01:45:08.625Z,97136.83
2019-05-29T01:47:25.543Z,97135.63
2019-05-29T01:49:42.379Z,97141.75
2019-05-29T01:51:59.375Z,97146.66
2019-05-29T01:54:17.484Z,97144.13
2019-05-29T01:56:35.244Z,97151.69
2019-05-29T01:58:52.100Z,97152.84
2019-05-29T02:01:09.293Z,97161.50
2019-05-29T02:03:26.286Z,97159.72
2019-05-29T02:05:43.354Z,97164.92
2019-05-29T02:08:00.248Z,97165.34
2019-05-29T02:10:18.234Z,97172.55
2019-05-29T02:12:35.819Z,97173.36
2019-05-29T02:14:52.337Z,97180.50
2019-05-29T02:17:09.472Z,97174.02
2019-05-29T02:19:26.593Z,97181.80
2019-05-29T02:21:43.384Z,97186.20
2019-05-29T02:24:00.337Z,97195.42
2019-05-29T02:26:18.131Z,97189.91
2019-05-29T02:28:34.961Z,97200.53
2019-05-29T02:30:51.992Z,97201.25
2019-05-29T02:33:09.872Z,97198.00
2019-05-29T02:35:29.425Z,97195.72
2019-05-29T02:37:45.427Z,97197.93
2019-05-29T02:40:02.274Z,97214.03
2019-05-29T02:42:20.874Z,97213.50
2019-05-29T02:44:37.492Z,97197.08
2019-05-29T02:46:54.457Z,97197.08
2019-05-29T02:49:11.421Z,97218.95
2019-05-29T02:51:28.841Z,97222.47
2019-05-29T02:56:24.954Z,97226.49
2019-05-29T02:58:41.583Z,97234.68
2019-05-29T03:00:58.654Z,97240.28
2019-05-29T03:03:15.551Z,97244.63
2019-05-29T03:05:32.345Z,97245.42
2019-05-29T03:07:49.305Z,97247.11
2019-05-29T03:10:07.125Z,97254.06
2019-05-29T03:12:25.012Z,97260.64
2019-05-29T03:14:42.367Z,97260.41
2019-05-29T03:16:59.528Z,97260.80
2019-05-29T03:19:16.474Z,97275.03
2019-05-29T03:21:34.767Z,97271.13
2019-05-29T03:23:52.463Z,97275.32
2019-05-29T03:26:09.459Z,97281.67
2019-05-29T03:28:27.593Z,97293.47
2019-05-29T03:30:46.351Z,97293.94
2019-05-29T03:33:03.250Z,97293.94
2019-05-29T03:35:20.262Z,97295.55
2019-05-29T03:37:38.816Z,97309.97
2019-05-29T03:39:55.649Z,97307.50
2019-05-29T03:42:12.423Z,97315.03
2019-05-29T03:44:30.759Z,97319.05
2019-05-29T03:46:47.770Z,97322.17
2019-05-29T03:49:04.473Z,97314.08
2019-05-29T03:51:21.427Z,97314.08
2019-05-29T03:53:38.632Z,97329.58
2019-05-29T03:55:55.582Z,97335.19
2019-05-29T03:58:12.538Z,97337.98
2019-05-29T04:00:35.941Z,97340.16
2019-05-29T04:02:48.248Z,97345.73
2019-05-29T04:05:05.271Z,97350.56
2019-05-29T04:07:22.318Z,97352.45
2019-05-29T04:09:39.287Z,97351.71
2019-05-29T04:11:56.381Z,97358.48
2019-05-29T04:14:13.314Z,97367.38
2019-05-29T04:16:52.435Z,97369.75
2019-05-29T04:18:51.332Z,97376.58
2019-05-29T04:21:08.336Z,97381.34
2019-05-29T04:23:25.283Z,97381.66
2019-05-29T04:25:43.207Z,97392.77
2019-05-29T04:28:00.513Z,97399.95
2019-05-29T04:30:17.253Z,97403.58
2019-05-29T04:32:34.451Z,97397.97
2019-05-29T04:34:51.358Z,97397.74
2019-05-29T04:37:08.416Z,97397.74
2019-05-29T04:39:25.539Z,97418.00
2019-05-29T04:41:42.442Z,97426.98
2019-05-29T04:43:59.273Z,97432.62
2019-05-29T04:46:16.109Z,97435.38
2019-05-29T04:48:34.028Z,97443.39
2019-05-29T04:50:51.284Z,97448.05
2019-05-29T04:53:08.280Z,97450.45
2019-05-29T04:55:25.343Z,97452.66
2019-05-29T04:57:43.499Z,97464.14
2019-05-29T05:00:00.416Z,97469.71
2019-05-29T05:02:17.295Z,97471.44
2019-05-29T05:04:35.179Z,97469.33
2019-05-29T05:06:52.305Z,97468.89
2019-05-29T05:10:46.636Z,97482.62
2019-05-29T05:13:03.988Z,97482.62
2019-05-29T05:15:20.810Z,97490.50
2019-05-29T05:17:38.041Z,97502.42
2019-05-29T05:19:55.248Z,97502.42
2019-05-29T05:22:12.265Z,97504.11
2019-05-29T05:24:30.158Z,97511.16
2019-05-29T05:26:47.269Z,97513.89
2019-05-29T05:29:04.259Z,97519.62
2019-05-29T05:31:21.297Z,97521.16
2019-05-29T05:33:38.659Z,97526.92
2019-05-29T05:35:55.589Z,97525.33
2019-05-29T05:38:12.469Z,97528.05
2019-05-29T05:40:30.666Z,97532.91
2019-05-29T05:42:47.947Z,97519.77
2019-05-29T05:45:05.600Z,97519.77
2019-05-29T05:47:22.578Z,97534.51
2019-05-29T05:49:39.663Z,97534.48
2019-05-29T05:51:56.491Z,97540.75
2019-05-29T05:54:13.465Z,97540.75
2019-05-29T05:56:31.376Z,97556.09
2019-05-29T05:58:48.574Z,97545.27
2019-05-29T06:01:05.535Z,97543.61
2019-05-29T06:03:22.447Z,97550.52
2019-05-29T06:05:40.217Z,97549.55
2019-05-29T06:07:57.536Z,97552.31
2019-05-29T06:10:14.455Z,97550.72
2019-05-29T06:12:32.439Z,97556.23
2019-05-29T06:14:49.341Z,97556.67
2019-05-29T06:17:08.055Z,97563.49
2019-05-29T06:19:25.253Z,97565.65
2019-05-29T06:21:42.888Z,97563.98
2019-05-29T06:23:59.631Z,97565.80
2019-05-29T06:26:16.549Z,97580.23
2019-05-29T06:28:33.422Z,97567.66
2019-05-29T06:30:50.521Z,97577.27
2019-05-29T06:33:07.470Z,97573.94
2019-05-29T06:35:24.460Z,97573.34
2019-05-29T06:37:41.775Z,97592.14
2019-05-29T06:39:59.026Z,97589.53
2019-05-29T06:42:17.129Z,97602.20
2019-05-29T06:44:36.397Z,97598.52
2019-05-29T06:46:53.262Z,97602.81
2019-05-29T06:49:09.980Z,97594.72
2019-05-29T06:51:26.858Z,97610.94
2019-05-29T06:53:43.921Z,97611.62
2019-05-29T06:56:02.261Z,97611.69
2019-05-29T06:58:19.586Z,97620.66
2019-05-29T07:00:38.152Z,97623.23
2019-05-29T07:02:55.536Z,97626.02
2019-05-29T07:05:12.447Z,97624.99
2019-05-29T07:07:29.401Z,97628.96
2019-05-29T07:09:47.163Z,97637.08
2019-05-29T07:12:05.134Z,97638.41
2019-05-29T07:14:22.133Z,97639.05
2019-05-29T07:16:45.433Z,97634.23
2019-05-29T07:21:17.341Z,97645.05
2019-05-29T07:23:34.439Z,97648.11
2019-05-29T07:25:51.536Z,97647.66
2019-05-29T07:28:09.092Z,97650.97
2019-05-29T07:30:26.118Z,97653.98
2019-05-29T07:32:51.034Z,97658.30
2019-05-29T07:35:03.958Z,97658.84
2019-05-29T07:37:21.431Z,97658.89
2019-05-29T07:39:39.431Z,97659.34
2019-05-29T07:41:57.513Z,97674.55
2019-05-29T07:44:15.118Z,97674.55
2019-05-29T07:46:32.251Z,97678.71
2019-05-29T07:48:50.585Z,97666.05
2019-05-29T07:51:08.848Z,97655.95
2019-05-29T07:53:25.979Z,97655.95
2019-05-29T07:55:42.970Z,97676.50
2019-05-29T07:58:00.490Z,97672.96
2019-05-29T08:00:17.993Z,97682.66
2019-05-29T08:02:34.822Z,97687.36
2019-05-29T08:04:51.690Z,97686.77
2019-05-29T08:07:08.491Z,97686.77
2019-05-29T08:09:25.517Z,97681.09
2019-05-29T08:11:43.540Z,97680.20
2019-05-29T08:14:00.605Z,97697.70
2019-05-29T08:16:17.585Z,97700.38
2019-05-29T08:18:34.390Z,97688.70
2019-05-29T08:20:51.525Z,97686.71
2019-05-29T08:23:08.352Z,97692.48
2019-05-29T08:25:28.103Z,97689.34
2019-05-29T08:27:46.580Z,97694.70
2019-05-29T08:30:03.618Z,97702.50
2019-05-29T08:32:20.315Z,97707.67
2019-05-29T08:34:37.571Z,97704.58
2019-05-29T08:37:04.888Z,97706.53
2019-05-29T08:39:12.562Z,97712.47
2019-05-29T08:41:29.635Z,97714.89
2019-05-29T08:43:48.446Z,97718.80
2019-05-29T08:46:05.534Z,97729.61
2019-05-29T08:48:22.263Z,97729.61
2019-05-29T08:50:39.293Z,97716.23
2019-05-29T08:52:56.532Z,97719.67
2019-05-29T08:55:14.001Z,97721.23
2019-05-29T08:57:31.248Z,97729.27
2019-05-29T08:59:48.520Z,97722.60
2019-05-29T09:02:05.585Z,97730.88
2019-05-29T09:04:22.838Z,97726.47
2019-05-29T09:06:40.666Z,97735.08
2019-05-29T09:08:57.811Z,97734.83
2019-05-29T09:11:15.038Z,97734.83
2019-05-29T09:13:31.832Z,97751.69
2019-05-29T09:15:48.531Z,97736.73
2019-05-29T09:18:05.572Z,97745.05
2019-05-29T09:20:37.142Z,97741.38
2019-05-29T09:22:42.852Z,97755.09
2019-05-29T09:24:59.880Z,97749.74
2019-05-29T09:27:17.129Z,97746.02
2019-05-29T09:29:34.483Z,97755.14
2019-05-29T09:31:51.387Z,97750.05
2019-05-29T09:34:10.051Z,97752.42
2019-05-29T09:36:27.277Z,97753.77
2019-05-29T09:38:44.336Z,97750.94
2019-05-29T09:41:01.458Z,97752.48
2019-05-29T09:43:19.798Z,97765.34
2019-05-29T09:45:38.248Z,97766.23
2019-05-29T09:47:55.435Z,97760.64
2019-05-29T09:50:12.485Z,97769.66
2019-05-29T09:52:30.926Z,97768.70
2019-05-29T09:54:48.337Z,97778.55
2019-05-29T09:57:05.405Z,97777.77
2019-05-29T09:59:22.503Z,97775.05
2019-05-29T10:01:39.441Z,97782.73
2019-05-29T10:03:57.596Z,97785.80
2019-05-29T10:06:15.255Z,97782.57
2019-05-29T10:08:32.498Z,97787.20
2019-05-29T10:10:49.454Z,97774.65
2019-05-29T10:13:06.316Z,97787.02
2019-05-29T10:15:24.435Z,97791.09
2019-05-29T10:17:41.306Z,97793.08
2019-05-29T10:19:58.953Z,97785.81
2019-05-29T10:22:16.041Z,97781.32
2019-05-29T10:24:32.769Z,97784.88
2019-05-29T10:26:49.556Z,97789.02
2019-05-29T10:29:09.223Z,97789.02
2019-05-29T10:31:25.225Z,97786.59
2019-05-29T10:33:42.477Z,97789.17
2019-05-29T10:36:03.403Z,97793.20
2019-05-29T10:38:18.497Z,97801.88
2019-05-29T10:40:35.400Z,97794.80
2019-05-29T10:42:53.507Z,97795.45
2019-05-29T10:45:10.523Z,97778.62
2019-05-29T10:47:27.370Z,97778.62
2019-05-29T10:49:45.527Z,97798.72
2019-05-29T10:52:14.925Z,97797.05
2019-05-29T10:54:21.800Z,97797.05
2019-05-29T10:56:38.628Z,97772.62
2019-05-29T11:02:30.774Z,97785.57
2019-05-29T11:04:52.941Z,97797.92
2019-05-29T11:07:06.306Z,97797.92
2019-05-29T11:09:23.319Z,97790.59
2019-05-29T11:11:40.256Z,97784.00
2019-05-29T11:13:57.261Z,97778.95
2019-05-29T11:16:14.332Z,97789.50
2019-05-29T11:18:31.444Z,97784.78
2019-05-29T11:20:49.338Z,97786.28
2019-05-29T11:23:07.431Z,97786.79
2019-05-29T11:25:27.563Z,97789.24
2019-05-29T11:27:43.975Z,97781.40
2019-05-29T11:30:00.632Z,97789.23
2019-05-29T11:32:17.539Z,97797.08
2019-05-29T11:34:34.281Z,97781.14
2019-05-29T11:36:51.940Z,97782.30
2019-05-29T11:39:09.955Z,97787.55
2019-05-29T11:41:27.246Z,97792.23
2019-05-29T11:43:44.281Z,97787.09
2019-05-29T11:46:02.477Z,97794.11
2019-05-29T11:48:19.343Z,97794.75
2019-05-29T11:50:36.495Z,97802.45
2019-05-29T11:52:54.325Z,97796.92
2019-05-29T11:55:11.427Z,97792.02
2019-05-29T11:57:39.880Z,97784.19
2019-05-29T12:00:01.259Z,97783.06
2019-05-29T12:02:15.973Z,97802.08
2019-05-29T12:04:33.043Z,97802.08
2019-05-29T12:06:51.170Z,97798.17
2019-05-29T12:09:10.920Z,97783.81
2019-05-29T12:11:28.591Z,97787.80
2019-05-29T12:13:45.643Z,97784.52
2019-05-29T12:16:02.657Z,97800.47
2019-05-29T12:18:24.370Z,97785.05
2019-05-29T12:20:39.484Z,97789.64
2019-05-29T12:23:18.995Z,97794.78
2019-05-29T12:25:15.229Z,97790.91
2019-05-29T12:27:32.553Z,97790.26
2019-05-29T12:29:49.763Z,97795.83
2019-05-29T12:32:10.346Z,97804.23
2019-05-29T12:34:26.337Z,97804.23
2019-05-29T12:36:43.910Z,97799.88
2019-05-29T12:39:02.241Z,97790.70
2019-05-29T12:41:19.556Z,97793.75
2019-05-29T12:43:36.673Z,97793.75
2019-05-29T12:45:53.556Z,97768.13
2019-05-29T12:48:13.984Z,97774.39
2019-05-29T12:50:34.200Z,97774.39
2019-05-29T12:52:48.480Z,97783.84
2019-05-29T12:55:06.104Z,97786.36
2019-05-29T12:57:23.670Z,97779.63
2019-05-29T12:59:44.092Z,97780.39
2019-05-29T13:02:02.687Z,97801.96
2019-05-29T13:04:20.509Z,97799.05
2019-05-29T13:06:37.498Z,97797.13
2019-05-29T13:08:54.722Z,97800.23
2019-05-29T13:11:11.663Z,97794.11
2019-05-29T13:13:28.641Z,97795.52
2019-05-29T13:15:46.059Z,97792.84
2019-05-29T13:18:07.881Z,97796.89
2019-05-29T13:20:22.427Z,97804.38
2019-05-29T13:22:39.558Z,97804.38
2019-05-29T13:24:57.343Z,97795.88
2019-05-29T13:27:15.221Z,97786.91
2019-05-29T13:29:33.029Z,97794.36
2019-05-29T13:31:54.877Z,97783.92
2019-05-29T13:34:09.715Z,97800.16
2019-05-29T13:36:26.647Z,97798.24
2019-05-29T13:38:43.646Z,97798.24
2019-05-29T13:41:02.305Z,97783.25
2019-05-29T13:43:19.856Z,97783.25
2019-05-29T13:45:36.950Z,97804.46
2019-05-29T13:47:53.563Z,97796.46
2019-05-29T13:50:12.595Z,97797.64
2019-05-29T13:52:28.823Z,97792.91
2019-05-29T13:54:45.679Z,97788.42
2019-05-29T13:57:04.175Z,97794.12
2019-05-29T13:59:21.345Z,97794.12
2019-05-29T14:01:38.781Z,97793.34
2019-05-29T14:03:55.457Z,97803.75
2019-05-29T14:06:12.426Z,97803.75
2019-05-29T14:08:30.594Z,97808.09
2019-05-29T14:14:11.804Z,97806.33
2019-05-29T14:16:28.294Z,97801.94
2019-05-29T14:18:47.939Z,97808.72
2019-05-29T14:21:05.345Z,97811.08
2019-05-29T14:23:22.273Z,97809.94
2019-05-29T14:25:39.450Z,97810.42
2019-05-29T14:27:56.406Z,97810.25
2019-05-29T14:30:14.125Z,97802.25
2019-05-29T14:32:31.296Z,97799.10
2019-05-29T14:34:48.288Z,97798.81
2019-05-29T14:37:06.291Z,97809.00
2019-05-29T14:39:25.932Z,97806.34
2019-05-29T14:41:42.861Z,97811.85
2019-05-29T14:44:01.725Z,97813.17
2019-05-29T14:46:19.235Z,97809.89
2019-05-29T14:48:36.602Z,97805.81
2019-05-29T14:50:53.454Z,97805.81
2019-05-29T14:53:11.432Z,97805.85
2019-05-29T14:55:29.117Z,97803.00
2019-05-29T14:57:45.929Z,97807.73
2019-05-29T15:00:06.798Z,97805.53
2019-05-29T15:02:24.030Z,97811.36
2019-05-29T15:04:41.293Z,97806.80
2019-05-29T15:06:58.398Z,97821.06
2019-05-29T15:09:15.480Z,97821.49
2019-05-29T15:11:33.475Z,97820.52
2019-05-29T15:13:50.502Z,97817.09
2019-05-29T15:16:09.005Z,97806.30
2019-05-29T15:18:26.253Z,97805.41
2019-05-29T15:20:43.030Z,97805.27
2019-05-29T15:22:59.794Z,97801.97
2019-05-29T15:25:23.471Z,97798.47
2019-05-29T15:27:35.412Z,97798.47
2019-05-29T15:29:52.253Z,97805.44
2019-05-29T15:32:10.320Z,97802.50
2019-05-29T15:34:27.443Z,97801.71
2019-05-29T15:36:44.515Z,97802.23
2019-05-29T15:39:01.334Z,97809.09
2019-05-29T15:41:20.090Z,97809.31
2019-05-29T15:43:37.001Z,97808.83
2019-05-29T15:45:53.648Z,97813.47
2019-05-29T15:48:11.023Z,97813.06
2019-05-29T15:50:28.653Z,97810.76
2019-05-29T15:52:45.983Z,97815.64
2019-05-29T15:55:19.976Z,97820.73
2019-05-29T15:57:21.517Z,97814.16
2019-05-29T15:59:38.467Z,97821.67
2019-05-29T16:01:55.530Z,97813.99
2019-05-29T16:07:11.920Z,97818.05
2019-05-29T16:09:29.483Z,97828.30
2019-05-29T16:11:47.478Z,97831.92
2019-05-29T16:14:04.430Z,97833.27
2019-05-29T16:16:21.499Z,97827.88
2019-05-29T16:18:38.513Z,97825.30
2019-05-29T16:20:58.436Z,97830.31
2019-05-29T16:23:31.045Z,97830.31
2019-05-29T16:25:40.041Z,97838.47
2019-05-29T16:27:53.446Z,97832.73
2019-05-29T16:30:11.415Z,97831.69
2019-05-29T16:32:28.557Z,97796.02
2019-05-29T16:34:45.548Z,97796.02
2019-05-29T16:37:02.350Z,97836.67
2019-05-29T16:39:21.449Z,97833.30
2019-05-29T16:41:38.939Z,97830.68
2019-05-29T16:43:55.733Z,97830.68
2019-05-29T16:46:15.974Z,97816.98
2019-05-29T16:48:31.568Z,97821.81
2019-05-29T16:50:48.620Z,97821.81
2019-05-29T16:53:06.536Z,97832.04
2019-05-29T16:55:23.372Z,97837.91
2019-05-29T16:57:40.473Z,97839.26
2019-05-29T16:59:59.099Z,97842.83
2019-05-29T17:05:39.230Z,97843.64
2019-05-29T17:07:56.270Z,97842.40
2019-05-29T17:10:14.283Z,97855.54
2019-05-29T17:12:31.335Z,97851.94
2019-05-29T17:14:48.584Z,97855.92
2019-05-29T17:17:05.382Z,97856.28
2019-05-29T17:19:23.042Z,97854.33
2019-05-29T17:21:41.861Z,97860.55
2019-05-29T17:23:58.675Z,97855.73
2019-05-29T17:26:16.653Z,97857.72
2019-05-29T17:28:33.819Z,97858.89
2019-05-29T17:30:50.488Z,97841.52
2019-05-29T17:33:08.352Z,97841.52
2019-05-29T17:35:36.989Z,97850.20
2019-05-29T17:37:53.701Z,97855.05
2019-05-29T17:40:10.598Z,98128.52
2019-05-29T17:42:27.442Z,97846.76
2019-05-29T17:44:44.462Z,97866.67
2019-05-29T17:47:01.509Z,97869.56
2019-05-29T17:49:22.676Z,97870.88
2019-05-29T17:51:39.013Z,97876.63
2019-05-29T17:53:56.259Z,97876.63
2019-05-29T17:56:26.406Z,97879.90
2019-05-29T17:58:33.490Z,97878.94
2019-05-29T18:00:50.355Z,97882.66
2019-05-29T18:03:07.433Z,97877.13
2019-05-29T18:05:24.869Z,97881.91
2019-05-29T18:07:42.252Z,97887.19
2019-05-29T18:09:59.869Z,97883.56
2019-05-29T18:12:19.293Z,97885.42
2019-05-29T18:14:37.284Z,97893.27
2019-05-29T18:16:54.643Z,97893.64
2019-05-29T18:19:11.343Z,97900.41
2019-05-29T18:21:28.642Z,97901.98
2019-05-29T18:23:45.555Z,97888.64
2019-05-29T18:26:03.999Z,97888.64
2019-05-29T18:28:22.072Z,97902.95
2019-05-29T18:33:49.599Z,97906.99
2019-05-29T18:36:07.246Z,97905.14
2019-05-29T18:38:26.507Z,97916.27
2019-05-29T18:40:43.869Z,97910.11
2019-05-29T18:43:00.855Z,97917.50
2019-05-29T18:45:22.951Z,97915.88
2019-05-29T18:47:39.260Z,97925.51
2019-05-29T18:49:56.287Z,97929.38
2019-05-29T18:52:15.933Z,97928.13
2019-05-29T18:54:35.235Z,97936.42
2019-05-29T18:57:13.608Z,97930.88
2019-05-29T18:59:11.947Z,97939.48
2019-05-29T19:01:31.616Z,97940.44
2019-05-29T19:03:52.325Z,97940.94
2019-05-29T19:06:09.483Z,97942.65
2019-05-29T19:08:29.781Z,97945.39
2019-05-29T19:10:47.854Z,97956.84
2019-05-29T19:13:04.895Z,97956.84
2019-05-29T19:15:21.887Z,97952.91
2019-05-29T19:17:39.323Z,97959.98
2019-05-29T19:19:56.676Z,97955.63
2019-05-29T19:22:13.463Z,97972.67
2019-05-29T19:24:32.419Z,97971.96
2019-05-29T19:26:50.370Z,97972.42
2019-05-29T19:29:07.325Z,97982.17
2019-05-29T19:31:24.966Z,97986.98
2019-05-29T19:33:42.386Z,97983.30
2019-05-29T19:35:59.423Z,97986.55
2019-05-29T19:38:23.852Z,97991.76
2019-05-29T19:40:40.820Z,97999.58
2019-05-29T19:42:58.231Z,98003.90
2019-05-29T19:45:20.423Z,98005.46
2019-05-29T19:47:37.451Z,98013.26
2019-05-29T19:49:54.470Z,98009.84
2019-05-29T19:52:13.051Z,98012.09
2019-05-29T19:54:35.868Z,98011.33
2019-05-29T19:56:53.685Z,98013.27
2019-05-29T19:59:10.634Z,98014.78
2019-05-29T20:01:31.638Z,98013.29
2019-05-29T20:03:46.567Z,98017.16
2019-05-29T20:06:05.509Z,98015.77
2019-05-29T20:08:23.355Z,98024.91
2019-05-29T20:10:43.188Z,98033.95
2019-05-29T20:13:00.330Z,98029.64
2019-05-29T20:18:32.101Z,98039.84
2019-05-29T20:20:49.407Z,98045.52
2019-05-29T20:23:06.494Z,98045.66
2019-05-29T20:25:23.309Z,98044.78
2019-05-29T20:27:40.854Z,98057.89
2019-05-29T20:30:00.513Z,98047.19
2019-05-29T20:32:18.254Z,98054.35
2019-05-29T20:34:37.355Z,98053.92
2019-05-29T20:36:54.342Z,98059.89
2019-05-29T20:39:13.276Z,98063.23
2019-05-29T20:41:34.091Z,98064.39
2019-05-29T20:43:49.961Z,98061.59
2019-05-29T20:46:06.681Z,98066.41
2019-05-29T20:48:24.888Z,98064.11
2019-05-29T20:50:45.865Z,98064.11
2019-05-29T20:53:05.231Z,98064.55
2019-05-29T20:55:22.276Z,98064.59
2019-05-29T20:57:40.164Z,98066.94
2019-05-29T20:59:59.561Z,98072.84
2019-05-29T21:02:18.853Z,98076.17
2019-05-29T21:04:36.369Z,98070.70
2019-05-29T21:06:53.657Z,98066.98
2019-05-29T21:09:10.870Z,98070.45
2019-05-29T21:11:30.510Z,98067.78
2019-05-29T21:14:48.682Z,98069.79
2019-05-29T21:17:06.511Z,98069.79
2019-05-29T21:19:23.450Z,98063.14
2019-05-29T21:21:40.448Z,98070.33
2019-05-29T21:23:57.280Z,98067.23
2019-05-29T21:26:14.549Z,98073.75
2019-05-29T21:28:39.766Z,98069.68
2019-05-29T21:30:50.278Z,98076.00
2019-05-29T21:33:07.238Z,98071.52
2019-05-29T21:35:24.495Z,98073.69
2019-05-29T21:37:42.483Z,98075.39
2019-05-29T21:39:59.822Z,98078.42
2019-05-29T21:42:17.712Z,98080.11
2019-05-29T21:44:34.974Z,98089.33
2019-05-29T21:46:52.447Z,98067.34
2019-05-29T21:49:12.603Z,98090.54
2019-05-29T21:51:32.585Z,98088.83
2019-05-29T21:53:51.468Z,98094.47
2019-05-29T21:56:08.485Z,98090.66
2019-05-29T21:58:27.798Z,98091.98
2019-05-29T22:00:49.950Z,98092.45
2019-05-29T22:03:08.451Z,98092.45
2019-05-29T22:05:27.324Z,98092.27
2019-05-29T22:07:44.856Z,98091.45
2019-05-29T22:10:03.128Z,98100.47
2019-05-29T22:12:20.246Z,98100.36
2019-05-29T22:14:37.636Z,98096.73
2019-05-29T22:16:54.959Z,98100.09
2019-05-29T22:19:12.452Z,98093.69
2019-05-29T22:21:31.473Z,98095.92
2019-05-29T22:23:48.370Z,98101.19
2019-05-29T22:26:05.464Z,98101.64
2019-05-29T22:28:22.698Z,98102.73
2019-05-29T22:30:39.402Z,98099.02
2019-05-29T22:32:57.433Z,98107.80
2019-05-29T22:35:14.433Z,98108.47
2019-05-29T22:37:33.845Z,98105.68
2019-05-29T22:39:51.474Z,98099.47
2019-05-29T22:42:08.617Z,98099.83
2019-05-29T22:44:25.488Z,98099.83
2019-05-29T22:46:42.418Z,98099.60
2019-05-29T22:48:59.834Z,98106.16
2019-05-29T22:51:17.107Z,98109.98
2019-05-29T22:53:34.097Z,98102.63
2019-05-29T22:55:51.625Z,98109.01
2019-05-29T22:58:08.833Z,98097.91
2019-05-29T23:00:25.448Z,98097.91
2019-05-29T23:02:42.252Z,98101.31
2019-05-29T23:05:00.556Z,98102.08
2019-05-29T23:07:17.618Z,98099.38
2019-05-29T23:09:34.647Z,98093.98
2019-05-29T23:11:54.164Z,98099.82
2019-05-29T23:14:11.260Z,98104.98
2019-05-29T23:16:29.480Z,98100.27
2019-05-29T23:18:46.372Z,98102.81
2019-05-29T23:21:03.437Z,98103.84
2019-05-29T23:23:20.427Z,98099.54
2019-05-29T23:25:37.496Z,98100.09
2019-05-29T23:27:54.855Z,98089.04
2019-05-29T23:30:12.242Z,98095.95
2019-05-29T23:32:29.010Z,98088.46
2019-05-29T23:34:45.830Z,98090.31
2019-05-29T23:37:03.374Z,98090.93
2019-05-29T23:39:20.259Z,98093.95
2019-05-29T23:41:37.271Z,98087.14
2019-05-29T23:43:55.445Z,98084.30
2019-05-29T23:46:12.442Z,98085.25
2019-05-29T23:48:29.342Z,98076.97
2019-05-29T23:50:46.677Z,98091.12
2019-05-29T23:53:04.036Z,98089.05
2019-05-29T23:55:22.648Z,98093.59
2019-05-29T23:57:39.415Z,98088.27
